Time;durP1;ratioP1;P1;durP2;ratioP2;P2;SDS_P1;SDS_P2;PMS_P1;PMS_P2;Temp;Humidity;BMP_temperature;BMP_pressure;BME280_temperature;BME280_humidity;BME280_pressure;Samples;Min_cycle;Max_cycle;Signal;HPM_P1;HPM_P2
2022/01/10 00:01:28;;;;;;;65.55;39.75;;;9.00;99.90;;;;;;5293935;28;20055;-73
2022/01/10 00:03:59;;;;;;;54.33;31.60;;;9.00;99.90;;;;;;5293665;27;20369;-73
2022/01/10 00:06:30;;;;;;;51.97;31.63;;;9.00;99.90;;;;;;5294084;27;20019;-81
2022/01/10 00:09:02;;;;;;;58.65;32.97;;;9.10;99.90;;;;;;5294203;28;20131;-79
2022/01/10 00:11:32;;;;;;;51.42;29.05;;;9.10;99.90;;;;;;5294209;27;20031;-78
2022/01/10 00:14:03;;;;;;;60.85;35.50;;;9.00;99.90;;;;;;5293706;28;20032;-81
2022/01/10 00:16:34;;;;;;;51.92;32.85;;;9.00;99.90;;;;;;5293939;27;20494;-79
2022/01/10 00:19:05;;;;;;;54.92;30.25;;;9.00;99.90;;;;;;5293944;28;20033;-79
2022/01/10 00:21:36;;;;;;;51.53;29.58;;;9.10;99.90;;;;;;5293735;27;20019;-80
2022/01/10 00:24:07;;;;;;;52.95;31.48;;;9.10;99.90;;;;;;5293525;28;20061;-80
2022/01/10 00:26:38;;;;;;;50.30;29.25;;;9.10;99.90;;;;;;5293565;28;20020;-81
2022/01/10 00:29:09;;;;;;;56.28;32.00;;;9.10;99.90;;;;;;5293677;27;20032;-81
2022/01/10 00:31:39;;;;;;;52.90;29.80;;;9.20;99.90;;;;;;5293488;28;20073;-80
2022/01/10 00:34:10;;;;;;;61.03;33.95;;;9.00;99.90;;;;;;5293437;28;20038;-78
2022/01/10 00:36:41;;;;;;;50.17;28.95;;;9.00;99.90;;;;;;5293474;28;20012;-78
2022/01/10 00:39:12;;;;;;;49.03;29.65;;;9.10;99.90;;;;;;5293307;28;20100;-80
2022/01/10 00:41:44;;;;;;;60.63;37.00;;;9.00;99.90;;;;;;5293310;28;20516;-80
2022/01/10 00:44:15;;;;;;;55.83;32.33;;;9.00;99.90;;;;;;5293316;28;20031;-78
2022/01/10 00:46:46;;;;;;;50.22;29.38;;;9.10;99.90;;;;;;5293260;28;20539;-77
2022/01/10 00:49:17;;;;;;;55.20;30.98;;;9.10;99.90;;;;;;5293187;27;20115;-78
2022/01/10 00:51:48;;;;;;;56.22;30.75;;;9.10;99.90;;;;;;5293225;28;20467;-79
2022/01/10 00:54:18;;;;;;;56.53;31.15;;;9.00;99.90;;;;;;5293001;28;20048;-80
2022/01/10 00:56:49;;;;;;;98.75;59.42;;;9.20;99.90;;;;;;5293087;27;20023;-80
2022/01/10 00:59:20;;;;;;;57.60;34.67;;;9.20;99.90;;;;;;5293037;28;20031;-78
2022/01/10 01:01:51;;;;;;;48.28;26.45;;;9.10;99.90;;;;;;5292908;28;20008;-79
2022/01/10 01:04:22;;;;;;;50.22;27.15;;;9.10;99.90;;;;;;5292961;28;20020;-75
2022/01/10 01:06:53;;;;;;;47.65;27.77;;;9.20;99.90;;;;;;5292670;28;20014;-74
2022/01/10 01:09:28;;;;;;;50.20;27.65;;;9.10;99.90;;;;;;5292759;28;20076;-74
2022/01/10 01:12:16;;;;;;;51.92;28.05;;;9.10;99.90;;;;;;5292683;28;20047;-73
2022/01/10 01:25:23;;;;;;;52.47;28.00;;;9.20;99.90;;;;;;5292870;28;20111;-73
2022/01/10 01:27:54;;;;;;;48.28;29.45;;;9.10;99.90;;;;;;5292477;28;20023;-72
2022/01/10 01:30:26;;;;;;;49.63;28.40;;;9.10;99.90;;;;;;5292590;28;20023;-73
2022/01/10 01:32:58;;;;;;;46.90;27.45;;;9.10;99.90;;;;;;5292267;28;20028;-72
2022/01/10 01:35:29;;;;;;;52.03;29.70;;;9.10;99.90;;;;;;5292179;28;20035;-73
2022/01/10 01:38:00;;;;;;;45.05;26.20;;;9.20;99.90;;;;;;5292372;28;20031;-73
2022/01/10 01:40:32;;;;;;;47.63;27.83;;;9.10;99.90;;;;;;5292234;28;20032;-74
2022/01/10 01:43:03;;;;;;;45.78;25.38;;;9.10;99.90;;;;;;5291997;28;20031;-73
2022/01/10 01:45:41;;;;;;;44.08;24.98;;;9.10;99.90;;;;;;5292259;28;20023;-75
2022/01/10 01:48:13;;;;;;;38.63;24.10;;;9.10;99.90;;;;;;5291960;28;20031;-73
2022/01/10 01:50:45;;;;;;;38.50;24.77;;;9.10;99.90;;;;;;5291879;28;20114;-73
2022/01/10 01:53:16;;;;;;;39.00;23.67;;;9.10;99.90;;;;;;5291967;28;20478;-72
2022/01/10 01:55:47;;;;;;;42.58;26.98;;;9.10;99.90;;;;;;5291818;27;20077;-73
2022/01/10 01:58:18;;;;;;;44.85;26.00;;;9.20;99.90;;;;;;5291909;28;20105;-73
2022/01/10 02:00:49;;;;;;;45.47;26.00;;;9.20;99.90;;;;;;5291793;28;20026;-72
2022/01/10 02:03:20;;;;;;;38.75;24.80;;;9.10;99.90;;;;;;5291743;28;20032;-74
2022/01/10 02:05:51;;;;;;;42.85;26.73;;;9.00;99.90;;;;;;5291831;28;20023;-73
2022/01/10 02:08:22;;;;;;;38.65;25.52;;;9.00;99.90;;;;;;5291662;28;20455;-73
2022/01/10 02:10:53;;;;;;;38.65;23.48;;;9.10;99.90;;;;;;5291544;28;20043;-72
2022/01/10 02:13:23;;;;;;;35.90;23.48;;;9.10;99.90;;;;;;5291326;28;20503;-75
2022/01/10 02:16:01;;;;;;;42.65;26.02;;;9.10;99.90;;;;;;5291113;28;20035;-73
2022/01/10 02:18:33;;;;;;;39.60;26.23;;;9.10;99.90;;;;;;5290814;28;20055;-72
2022/01/10 02:21:05;;;;;;;49.45;29.63;;;9.10;99.90;;;;;;5291489;28;20019;-73
2022/01/10 02:23:37;;;;;;;64.18;37.72;;;9.10;99.90;;;;;;5289846;28;20482;-72
2022/01/10 02:26:08;;;;;;;52.22;30.95;;;9.20;99.90;;;;;;5291197;28;20024;-73
2022/01/10 02:28:41;;;;;;;92.90;54.22;;;9.20;99.90;;;;;;5291309;28;20343;-74
2022/01/10 02:31:11;;;;;;;44.88;29.90;;;9.10;99.90;;;;;;5291221;28;20027;-74
2022/01/10 02:33:42;;;;;;;38.20;23.75;;;9.20;99.90;;;;;;5291109;27;20039;-74
2022/01/10 02:36:24;;;;;;;45.60;27.85;;;9.10;99.90;;;;;;5291059;28;20073;-74
2022/01/10 02:39:00;;;;;;;68.95;45.33;;;9.20;99.90;;;;;;5290995;28;20015;-73
2022/01/10 02:41:34;;;;;;;33.35;22.95;;;9.20;99.90;;;;;;5290712;28;20030;-73
2022/01/10 02:44:08;;;;;;;41.20;25.88;;;9.10;99.90;;;;;;5290555;28;20034;-79
2022/01/10 02:46:40;;;;;;;42.47;25.75;;;9.20;99.90;;;;;;5290855;28;20024;-79
2022/01/10 02:49:14;;;;;;;48.15;30.48;;;9.10;99.90;;;;;;5290916;28;20039;-79
2022/01/10 02:51:45;;;;;;;44.40;28.98;;;9.10;99.90;;;;;;5290639;28;20043;-78
2022/01/10 02:54:16;;;;;;;44.78;26.75;;;9.20;99.90;;;;;;5290444;28;20102;-80
2022/01/10 02:56:52;;;;;;;42.30;25.48;;;9.10;99.90;;;;;;5290705;28;20027;-78
2022/01/10 02:59:24;;;;;;;36.50;24.27;;;9.10;99.90;;;;;;5290635;28;20028;-77
2022/01/10 03:01:55;;;;;;;43.83;28.55;;;9.10;99.90;;;;;;5290528;28;20015;-80
2022/01/10 03:04:26;;;;;;;39.42;24.52;;;9.10;99.90;;;;;;5290563;28;20038;-78
2022/01/10 03:06:58;;;;;;;43.85;27.27;;;9.10;99.90;;;;;;5290573;28;20023;-77
2022/01/10 03:09:29;;;;;;;49.53;33.90;;;9.20;99.90;;;;;;5290601;28;20074;-76
2022/01/10 03:12:00;;;;;;;39.60;23.98;;;9.10;99.90;;;;;;5290522;28;20040;-80
2022/01/10 03:14:30;;;;;;;36.55;23.65;;;9.00;99.90;;;;;;5290251;28;20047;-77
2022/01/10 03:17:01;;;;;;;39.30;22.15;;;9.00;99.90;;;;;;5290303;28;20455;-78
2022/01/10 03:19:32;;;;;;;44.65;29.13;;;9.10;99.90;;;;;;5290472;28;20031;-77
2022/01/10 03:22:05;;;;;;;41.28;27.10;;;9.00;99.90;;;;;;5290397;28;20016;-80
2022/01/10 03:24:36;;;;;;;41.30;22.33;;;9.00;99.90;;;;;;5290041;28;20044;-79
2022/01/10 03:27:07;;;;;;;33.10;21.35;;;9.00;99.90;;;;;;5290256;28;20023;-78
2022/01/10 03:29:38;;;;;;;36.53;22.83;;;9.10;99.90;;;;;;5291286;28;20473;-80
2022/01/10 03:32:11;;;;;;;40.97;24.27;;;9.00;99.90;;;;;;5294756;28;20032;-78
2022/01/10 03:34:42;;;;;;;38.90;23.70;;;9.10;99.90;;;;;;5294350;28;20043;-79
2022/01/10 03:37:13;;;;;;;32.58;20.77;;;9.00;99.90;;;;;;5294681;28;20034;-78
2022/01/10 03:39:44;;;;;;;36.35;21.83;;;9.00;99.90;;;;;;5294580;28;20023;-78
2022/01/10 03:42:15;;;;;;;37.03;22.88;;;9.00;99.90;;;;;;5294584;28;20019;-79
2022/01/10 03:44:46;;;;;;;36.13;22.45;;;8.90;99.90;;;;;;5294521;28;20026;-78
2022/01/10 03:47:18;;;;;;;35.22;21.27;;;8.90;99.90;;;;;;5294472;28;20024;-79
2022/01/10 03:49:49;;;;;;;35.50;22.52;;;8.90;99.90;;;;;;5294389;28;20016;-79
2022/01/10 03:52:20;;;;;;;33.58;21.15;;;8.90;99.90;;;;;;5294241;28;20030;-79
2022/01/10 03:54:51;;;;;;;34.30;21.30;;;8.80;99.90;;;;;;5294122;28;20036;-74
2022/01/10 03:57:22;;;;;;;37.70;25.75;;;9.00;99.90;;;;;;5294528;28;20015;-73
2022/01/10 03:59:53;;;;;;;39.58;23.73;;;8.90;99.90;;;;;;5294272;27;20109;-73
2022/01/10 04:02:25;;;;;;;33.92;21.05;;;8.90;99.90;;;;;;5294224;28;20493;-72
2022/01/10 04:04:56;;;;;;;40.83;24.15;;;9.00;99.90;;;;;;5294226;28;20019;-72
2022/01/10 04:07:27;;;;;;;44.67;28.25;;;8.90;99.90;;;;;;5294171;28;20024;-72
2022/01/10 04:09:58;;;;;;;59.90;37.90;;;9.00;99.90;;;;;;5294077;28;20474;-72
2022/01/10 04:12:29;;;;;;;46.85;26.13;;;9.10;99.90;;;;;;5294200;28;20023;-73
2022/01/10 04:15:00;;;;;;;42.20;25.70;;;8.90;99.90;;;;;;5293793;28;20068;-73
2022/01/10 04:17:31;;;;;;;52.80;30.48;;;9.10;99.90;;;;;;5292666;28;20043;-72
2022/01/10 04:20:03;;;;;;;40.13;23.45;;;9.10;99.90;;;;;;5294046;28;20023;-73
2022/01/10 04:22:34;;;;;;;34.72;21.00;;;9.00;99.90;;;;;;5293640;28;20480;-73
2022/01/10 04:25:06;;;;;;;37.97;22.10;;;8.80;99.90;;;;;;5293665;28;20076;-74
2022/01/10 04:27:36;;;;;;;38.35;21.67;;;9.00;99.90;;;;;;5292588;28;20112;-72
2022/01/10 04:30:08;;;;;;;33.20;19.60;;;8.90;99.90;;;;;;5293588;28;20483;-73
2022/01/10 04:32:39;;;;;;;37.50;19.85;;;9.00;99.90;;;;;;5293694;28;20028;-72
2022/01/10 04:35:11;;;;;;;38.22;21.23;;;9.00;99.90;;;;;;5293297;28;20420;-72
2022/01/10 04:37:42;;;;;;;29.65;19.58;;;8.90;99.90;;;;;;5293438;28;20026;-72
2022/01/10 04:40:13;;;;;;;35.40;20.27;;;9.00;99.90;;;;;;5293504;28;20027;-72
2022/01/10 04:42:44;;;;;;;37.65;22.05;;;8.90;99.90;;;;;;5292469;28;20020;-74
2022/01/10 04:45:16;;;;;;;36.00;21.13;;;8.90;99.90;;;;;;5293192;28;20034;-72
2022/01/10 04:47:47;;;;;;;33.08;20.67;;;9.00;99.90;;;;;;5293356;28;20032;-74
2022/01/10 04:52:53;;;;;;;34.53;21.20;;;9.00;99.90;;;;;;5293102;28;20043;-72
2022/01/10 04:55:23;;;;;;;37.97;22.10;;;8.90;99.90;;;;;;5293077;28;20036;-71
2022/01/10 04:57:54;;;;;;;42.83;22.42;;;8.90;99.90;;;;;;5293048;28;20830;-72
2022/01/10 05:00:25;;;;;;;39.58;20.05;;;9.00;99.90;;;;;;5292944;28;20031;-72
2022/01/10 05:02:56;;;;;;;37.22;20.30;;;9.00;99.90;;;;;;5292962;28;20110;-72
2022/01/10 05:05:27;;;;;;;41.83;21.73;;;9.00;99.90;;;;;;5293050;28;20042;-72
2022/01/10 05:07:58;;;;;;;45.13;23.27;;;8.90;99.90;;;;;;5292813;28;20023;-75
2022/01/10 05:10:29;;;;;;;35.42;19.10;;;9.00;99.90;;;;;;5292936;28;20023;-73
2022/01/10 05:13:00;;;;;;;37.42;21.10;;;8.90;99.90;;;;;;5292794;28;20490;-72
2022/01/10 05:15:30;;;;;;;34.80;19.55;;;8.90;99.90;;;;;;5292625;28;20036;-72
2022/01/10 05:18:01;;;;;;;35.67;19.60;;;9.10;99.90;;;;;;5292525;28;20042;-74
2022/01/10 05:20:32;;;;;;;35.92;19.88;;;9.10;99.90;;;;;;5292258;28;20104;-72
2022/01/10 05:23:03;;;;;;;37.92;19.25;;;9.00;99.90;;;;;;5291967;28;20498;-76
2022/01/10 05:25:36;;;;;;;31.67;19.02;;;9.00;99.90;;;;;;5292621;28;20501;-77
2022/01/10 05:28:10;;;;;;;31.30;19.05;;;8.90;99.90;;;;;;5292464;28;20068;-74
2022/01/10 05:30:41;;;;;;;34.15;18.25;;;8.90;99.90;;;;;;5292374;28;20513;-77
2022/01/10 05:33:13;;;;;;;31.05;18.60;;;8.90;99.90;;;;;;5292268;28;20344;-76
2022/01/10 05:35:45;;;;;;;30.13;17.63;;;8.80;99.90;;;;;;5292122;28;20081;-77
2022/01/10 05:38:16;;;;;;;30.40;18.98;;;8.90;99.90;;;;;;5292326;28;20579;-77
2022/01/10 05:40:47;;;;;;;32.33;18.70;;;9.00;99.90;;;;;;5292407;28;20041;-77
2022/01/10 05:43:18;;;;;;;33.75;19.52;;;8.90;99.90;;;;;;5292022;28;20024;-77
2022/01/10 05:45:49;;;;;;;35.90;20.17;;;8.90;99.90;;;;;;5292013;28;20045;-79
2022/01/10 05:48:25;;;;;;;40.22;22.80;;;9.00;99.90;;;;;;5292084;28;20027;-78
2022/01/10 05:50:56;;;;;;;43.03;24.77;;;8.90;99.90;;;;;;5291967;28;20023;-77
2022/01/10 05:53:28;;;;;;;35.17;20.23;;;8.80;99.90;;;;;;5290736;28;20032;-77
2022/01/10 05:55:58;;;;;;;35.15;20.08;;;8.90;99.90;;;;;;5291875;28;20063;-78
2022/01/10 05:58:30;;;;;;;33.25;19.33;;;8.90;99.90;;;;;;5291536;28;20078;-76
2022/01/10 06:01:01;;;;;;;32.70;18.77;;;8.90;99.90;;;;;;5291752;28;20428;-77
2022/01/10 06:03:32;;;;;;;33.65;19.42;;;8.90;99.90;;;;;;5291820;27;20027;-78
2022/01/10 06:06:03;;;;;;;39.65;20.63;;;8.80;99.90;;;;;;5291646;28;20066;-79
2022/01/10 06:08:34;;;;;;;32.20;19.20;;;8.90;99.90;;;;;;5291702;27;20020;-77
2022/01/10 06:11:07;;;;;;;36.38;20.88;;;8.90;99.90;;;;;;5291766;28;20538;-79
2022/01/10 06:13:39;;;;;;;32.60;18.13;;;8.90;99.90;;;;;;5291399;28;20024;-78
2022/01/10 06:16:10;;;;;;;35.10;20.10;;;8.90;99.90;;;;;;5291405;28;20649;-78
2022/01/10 06:18:41;;;;;;;31.50;18.05;;;8.90;99.90;;;;;;5291499;28;20019;-78
2022/01/10 06:21:12;;;;;;;32.22;19.90;;;8.90;99.90;;;;;;5291252;28;20066;-79
2022/01/10 06:23:42;;;;;;;37.85;21.17;;;8.90;99.90;;;;;;5291088;28;20063;-79
2022/01/10 06:26:13;;;;;;;33.15;18.88;;;8.90;99.90;;;;;;5291425;28;20024;-76
2022/01/10 06:28:44;;;;;;;29.70;17.80;;;8.90;99.90;;;;;;5290968;28;20098;-77
2022/01/10 06:31:15;;;;;;;33.10;20.30;;;9.00;99.90;;;;;;5291115;28;20032;-76
2022/01/10 06:33:46;;;;;;;31.58;18.27;;;9.00;99.90;;;;;;5290855;28;20085;-76
2022/01/10 06:36:17;;;;;;;34.35;20.33;;;8.90;99.90;;;;;;5291177;28;20056;-75
2022/01/10 06:38:48;;;;;;;29.10;17.52;;;8.90;99.90;;;;;;5291361;28;20590;-74
2022/01/10 06:41:19;;;;;;;29.42;19.48;;;8.90;99.90;;;;;;5291117;28;20031;-75
2022/01/10 06:43:49;;;;;;;30.40;18.70;;;8.80;99.90;;;;;;5290652;28;20027;-73
2022/01/10 06:46:20;;;;;;;34.10;20.25;;;8.90;99.90;;;;;;5290985;28;20020;-75
2022/01/10 06:48:51;;;;;;;90.35;42.15;;;8.90;99.90;;;;;;5290843;27;20024;-72
2022/01/10 06:51:22;;;;;;;41.00;25.02;;;8.90;99.90;;;;;;5289511;28;20502;-72
2022/01/10 06:53:53;;;;;;;42.15;29.35;;;8.90;99.90;;;;;;5290657;28;20464;-72
2022/01/10 06:56:23;;;;;;;155.77;111.60;;;9.00;99.90;;;;;;5290713;28;20051;-72
2022/01/10 06:58:54;;;;;;;57.10;38.88;;;9.00;99.90;;;;;;5289901;28;20039;-75
2022/01/10 07:01:25;;;;;;;41.17;26.67;;;9.00;99.90;;;;;;5289829;28;20016;-75
2022/01/10 07:03:57;;;;;;;41.40;27.50;;;9.00;99.90;;;;;;5289792;28;20375;-72
2022/01/10 07:06:28;;;;;;;48.45;31.95;;;9.00;99.90;;;;;;5289698;28;20028;-75
2022/01/10 07:08:59;;;;;;;36.10;22.08;;;9.00;99.90;;;;;;5289708;28;20043;-71
2022/01/10 07:11:30;;;;;;;38.45;23.75;;;9.00;99.90;;;;;;5290546;28;20032;-72
2022/01/10 07:14:00;;;;;;;53.85;38.72;;;9.10;99.90;;;;;;5290259;28;20027;-72
2022/01/10 07:16:32;;;;;;;43.60;26.27;;;9.10;99.90;;;;;;5291128;28;20023;-73
2022/01/10 07:19:03;;;;;;;45.97;28.50;;;9.00;99.90;;;;;;5290783;28;20220;-72
2022/01/10 07:21:37;;;;;;;39.25;19.75;;;9.10;99.90;;;;;;5290393;28;20386;-72
2022/01/10 07:24:09;;;;;;;32.00;20.73;;;9.10;99.90;;;;;;5290228;28;20066;-71
2022/01/10 07:26:41;;;;;;;36.50;22.83;;;9.00;99.90;;;;;;5290436;28;20047;-72
2022/01/10 07:29:12;;;;;;;77.38;56.47;;;9.20;99.90;;;;;;5290006;28;20039;-72
2022/01/10 07:31:43;;;;;;;41.67;21.95;;;9.10;99.90;;;;;;5289999;28;20091;-72
2022/01/10 07:34:15;;;;;;;34.97;23.10;;;9.20;99.90;;;;;;5288540;28;20088;-72
2022/01/10 07:36:46;;;;;;;31.45;21.02;;;9.20;99.90;;;;;;5289647;28;20024;-73
2022/01/10 07:39:17;;;;;;;35.67;21.08;;;9.20;99.90;;;;;;5289455;28;20011;-72
2022/01/10 07:41:48;;;;;;;38.35;23.70;;;9.30;99.90;;;;;;5289762;28;20036;-72
2022/01/10 07:44:19;;;;;;;35.97;21.35;;;9.20;99.90;;;;;;5289792;28;20100;-72
2022/01/10 07:46:50;;;;;;;38.30;23.73;;;9.20;99.90;;;;;;5289782;28;20028;-72
2022/01/10 07:49:21;;;;;;;41.10;22.88;;;9.30;99.90;;;;;;5289632;28;20366;-72
2022/01/10 07:51:52;;;;;;;42.55;26.70;;;9.30;99.90;;;;;;5289473;28;20024;-72
2022/01/10 07:54:24;;;;;;;39.00;25.60;;;9.30;99.90;;;;;;5289494;28;20047;-71
2022/01/10 07:56:55;;;;;;;35.83;20.95;;;9.30;99.90;;;;;;5289581;28;20027;-71
2022/01/10 07:59:26;;;;;;;36.33;20.92;;;9.40;99.90;;;;;;5288255;28;20080;-72
2022/01/10 08:01:56;;;;;;;46.67;30.65;;;9.40;99.90;;;;;;5289712;28;20471;-75
2022/01/10 08:04:27;;;;;;;39.85;21.38;;;9.30;99.90;;;;;;5289576;28;20035;-74
2022/01/10 08:06:58;;;;;;;38.78;23.75;;;9.30;99.90;;;;;;5288202;28;20016;-75
2022/01/10 08:09:29;;;;;;;43.10;21.13;;;9.30;99.90;;;;;;5289625;28;20054;-75
2022/01/10 08:12:00;;;;;;;40.00;24.85;;;9.30;99.90;;;;;;5289507;28;20051;-75
2022/01/10 08:14:32;;;;;;;42.03;26.95;;;9.30;99.90;;;;;;5289260;28;20075;-74
2022/01/10 08:17:04;;;;;;;52.92;28.58;;;9.30;99.90;;;;;;5290733;28;20116;-75
2022/01/10 08:19:34;;;;;;;36.90;24.10;;;9.40;99.90;;;;;;5293276;27;20085;-75
2022/01/10 08:22:07;;;;;;;41.55;24.23;;;9.50;99.90;;;;;;5293329;28;20470;-75
2022/01/10 08:24:38;;;;;;;44.40;28.38;;;9.30;99.90;;;;;;5292976;28;20482;-75
2022/01/10 08:27:08;;;;;;;39.45;24.10;;;9.50;99.90;;;;;;5293181;28;20039;-75
2022/01/10 08:29:39;;;;;;;38.03;25.27;;;9.50;99.90;;;;;;5293124;28;20107;-76
2022/01/10 08:32:11;;;;;;;36.28;21.92;;;9.40;99.90;;;;;;5286432;28;20447;-76
2022/01/10 08:34:42;;;;;;;37.63;26.02;;;9.40;99.90;;;;;;5283911;28;20063;-72
2022/01/10 08:37:13;;;;;;;43.10;26.60;;;9.40;99.90;;;;;;5292999;28;20098;-75
2022/01/10 08:39:49;;;;;;;39.00;23.60;;;9.40;99.90;;;;;;5292987;28;20110;-75
2022/01/10 08:42:20;;;;;;;39.00;22.40;;;9.50;99.90;;;;;;5293418;28;20008;-76
2022/01/10 08:44:52;;;;;;;37.00;20.52;;;9.40;99.90;;;;;;5293343;28;20047;-76
2022/01/10 08:47:23;;;;;;;35.80;20.73;;;9.40;99.90;;;;;;5293240;28;20015;-75
2022/01/10 08:49:54;;;;;;;40.05;20.58;;;9.50;99.90;;;;;;5293247;28;20035;-77
2022/01/10 08:52:25;;;;;;;37.63;22.77;;;9.50;99.90;;;;;;5292692;28;20070;-76
2022/01/10 08:54:56;;;;;;;37.55;22.10;;;9.60;99.90;;;;;;5292775;28;20067;-79
2022/01/10 08:57:27;;;;;;;38.58;25.55;;;9.50;99.90;;;;;;5293055;28;20026;-78
2022/01/10 08:59:57;;;;;;;38.60;21.83;;;9.50;99.90;;;;;;5293008;28;20035;-75
2022/01/10 09:02:28;;;;;;;36.90;21.13;;;9.50;99.90;;;;;;5292887;28;20475;-78
2022/01/10 09:04:59;;;;;;;39.08;21.45;;;9.50;99.90;;;;;;5292672;28;20028;-76
2022/01/10 09:07:30;;;;;;;44.67;22.67;;;9.40;99.90;;;;;;5292919;28;20042;-78
2022/01/10 09:10:01;;;;;;;35.55;22.75;;;9.50;99.90;;;;;;5292923;28;20038;-78
2022/01/10 09:12:32;;;;;;;31.80;21.40;;;9.60;99.90;;;;;;5292617;28;20013;-78
2022/01/10 09:15:04;;;;;;;40.20;23.98;;;9.50;99.90;;;;;;5292470;28;20371;-78
2022/01/10 09:17:35;;;;;;;55.45;36.08;;;9.60;99.90;;;;;;5292827;27;20539;-75
2022/01/10 09:20:06;;;;;;;60.90;40.63;;;9.60;99.90;;;;;;5292583;28;20024;-78
2022/01/10 09:22:37;;;;;;;72.93;45.03;;;9.50;99.90;;;;;;5292441;27;20482;-79
2022/01/10 09:25:08;;;;;;;36.70;22.55;;;9.40;99.90;;;;;;5292341;28;20056;-79
2022/01/10 09:27:39;;;;;;;47.30;31.77;;;9.50;99.90;;;;;;5292195;28;20053;-76
2022/01/10 09:30:11;;;;;;;31.40;19.63;;;9.50;99.90;;;;;;5292359;28;20027;-81
2022/01/10 09:32:42;;;;;;;37.97;25.50;;;9.50;99.90;;;;;;5292454;27;20451;-72
2022/01/10 09:35:13;;;;;;;37.20;21.85;;;9.40;99.90;;;;;;5292096;28;20043;-77
2022/01/10 09:37:43;;;;;;;39.45;27.40;;;9.50;99.90;;;;;;5292564;28;20355;-72
2022/01/10 09:40:15;;;;;;;40.55;24.80;;;9.70;99.90;;;;;;5292331;27;20046;-74
2022/01/10 09:42:46;;;;;;;38.03;22.05;;;9.60;99.90;;;;;;5291964;28;20042;-74
2022/01/10 09:45:17;;;;;;;35.38;23.27;;;9.50;99.90;;;;;;5291984;28;20027;-76
2022/01/10 09:47:49;;;;;;;34.92;20.63;;;9.60;99.90;;;;;;5290543;28;20472;-77
2022/01/10 09:50:19;;;;;;;39.50;21.75;;;9.60;99.90;;;;;;5292036;28;20057;-74
2022/01/10 09:52:51;;;;;;;34.05;20.55;;;9.60;99.90;;;;;;5292103;28;20120;-75
2022/01/10 09:55:22;;;;;;;43.65;22.50;;;9.70;99.90;;;;;;5290770;28;20135;-76
2022/01/10 09:57:53;;;;;;;34.90;20.13;;;9.70;99.90;;;;;;5291790;28;20146;-74
2022/01/10 10:00:32;;;;;;;36.38;21.50;;;9.70;99.90;;;;;;5291245;28;20420;-75
2022/01/10 10:03:07;;;;;;;33.45;20.45;;;9.60;99.90;;;;;;5291806;28;20497;-78
2022/01/10 10:05:43;;;;;;;42.17;26.83;;;9.60;99.90;;;;;;5291801;28;20027;-76
2022/01/10 10:08:17;;;;;;;36.50;21.92;;;9.50;99.90;;;;;;5291368;28;20020;-79
2022/01/10 10:10:50;;;;;;;44.17;27.92;;;9.60;99.90;;;;;;5291351;28;20084;-79
2022/01/10 10:13:20;;;;;;;36.53;24.48;;;9.60;99.90;;;;;;5289517;28;20028;-74
2022/01/10 10:15:52;;;;;;;41.60;25.70;;;9.70;99.90;;;;;;5291207;28;20054;-75
2022/01/10 10:18:23;;;;;;;40.40;23.67;;;9.60;99.90;;;;;;5291410;28;20487;-76
2022/01/10 10:21:00;;;;;;;37.50;23.10;;;9.70;99.90;;;;;;5291759;28;20020;-76
2022/01/10 10:23:31;;;;;;;38.78;24.50;;;9.60;99.90;;;;;;5291047;28;20054;-78
2022/01/10 10:26:04;;;;;;;42.00;23.42;;;9.70;99.90;;;;;;5291238;28;20028;-77
2022/01/10 10:28:37;;;;;;;81.25;58.45;;;9.80;99.90;;;;;;5291479;28;20023;-76
2022/01/10 10:31:08;;;;;;;50.13;30.60;;;9.70;99.90;;;;;;5291239;28;20027;-76
2022/01/10 10:33:53;;;;;;;47.45;30.55;;;9.70;99.90;;;;;;5291141;28;20359;-78
2022/01/10 10:36:30;;;;;;;44.13;32.15;;;9.80;99.90;;;;;;5290861;28;20542;-77
2022/01/10 10:39:06;;;;;;;37.35;25.08;;;9.90;99.90;;;;;;5289061;28;20020;-76
2022/01/10 10:41:39;;;;;;;29.23;18.67;;;9.90;99.90;;;;;;5288720;28;20011;-76
2022/01/10 10:44:09;;;;;;;42.53;23.80;;;9.90;99.90;;;;;;5290229;28;20019;-77
2022/01/10 10:46:40;;;;;;;41.30;26.63;;;9.90;99.90;;;;;;5289880;28;20015;-77
2022/01/10 10:49:11;;;;;;;41.85;25.23;;;9.90;99.90;;;;;;5290255;28;20046;-77
2022/01/10 10:51:42;;;;;;;37.05;23.50;;;9.90;99.90;;;;;;5289005;28;20462;-76
2022/01/10 10:54:14;;;;;;;38.83;26.20;;;10.00;99.90;;;;;;5290063;28;20124;-76
2022/01/10 10:56:46;;;;;;;31.85;19.50;;;10.00;99.90;;;;;;5290314;28;20555;-77
2022/01/10 10:59:17;;;;;;;28.13;19.48;;;10.00;99.90;;;;;;5290256;28;20077;-76
2022/01/10 11:01:47;;;;;;;32.45;22.13;;;9.90;99.90;;;;;;5290214;28;20474;-77
2022/01/10 11:04:18;;;;;;;25.92;18.83;;;10.00;99.90;;;;;;5290281;28;20374;-77
2022/01/10 11:06:50;;;;;;;31.25;19.20;;;10.00;99.90;;;;;;5290297;28;20020;-76
2022/01/10 11:09:22;;;;;;;38.78;27.88;;;9.90;99.90;;;;;;5290339;27;20034;-76
2022/01/10 11:11:53;;;;;;;45.90;27.95;;;9.90;99.90;;;;;;5290217;28;20478;-76
2022/01/10 11:14:24;;;;;;;58.70;30.83;;;10.00;99.90;;;;;;5290018;28;20091;-77
2022/01/10 11:16:55;;;;;;;63.17;27.95;;;10.10;99.90;;;;;;5289962;28;20020;-77
2022/01/10 11:19:27;;;;;;;30.45;17.30;;;10.00;99.90;;;;;;5290028;28;20019;-76
2022/01/10 11:22:07;;;;;;;58.53;27.58;;;10.00;99.90;;;;;;5289900;28;20034;-76
2022/01/10 11:24:48;;;;;;;33.80;18.50;;;10.20;99.90;;;;;;5290026;28;20094;-76
2022/01/10 11:27:34;;;;;;;25.55;17.20;;;10.00;99.90;;;;;;5290530;28;20063;-74
2022/01/10 11:30:31;;;;;;;20.73;12.32;;;10.10;99.90;;;;;;5289472;28;20024;-78
2022/01/10 11:33:16;;;;;;;24.30;16.25;;;10.00;99.90;;;;;;5289301;28;20490;-77
2022/01/10 11:35:56;;;;;;;29.92;20.33;;;10.00;99.90;;;;;;5289762;28;20490;-77
2022/01/10 11:38:46;;;;;;;80.85;33.35;;;9.90;99.90;;;;;;5290100;28;20373;-77
2022/01/10 11:41:31;;;;;;;34.85;19.60;;;10.00;99.90;;;;;;5289997;28;20159;-75
2022/01/10 11:44:08;;;;;;;181.05;164.40;;;9.90;99.90;;;;;;5289691;28;20490;-76
2022/01/10 11:46:42;;;;;;;82.47;43.60;;;10.30;99.90;;;;;;5289949;28;20383;-77
2022/01/10 11:49:12;;;;;;;99.80;53.97;;;10.20;99.90;;;;;;5290039;28;20356;-76
2022/01/10 11:51:52;;;;;;;86.13;45.80;;;10.60;99.90;;;;;;5292182;28;20030;-78
2022/01/10 11:54:36;;;;;;;232.63;209.25;;;10.30;99.90;;;;;;5293685;28;20027;-77
2022/01/10 11:57:08;;;;;;;83.53;46.88;;;10.60;99.90;;;;;;5294168;28;20383;-75
2022/01/10 11:59:46;;;;;;;47.83;25.77;;;10.40;99.90;;;;;;5293796;28;20016;-76
2022/01/10 12:02:19;;;;;;;42.85;19.13;;;10.50;99.90;;;;;;5293653;28;20102;-77
2022/01/10 12:04:53;;;;;;;78.88;39.67;;;10.30;99.90;;;;;;5293848;28;20043;-78
2022/01/10 12:07:24;;;;;;;97.80;38.20;;;10.50;99.90;;;;;;5292074;28;20467;-79
2022/01/10 12:09:57;;;;;;;74.90;32.88;;;10.50;99.90;;;;;;5293653;27;20047;-78
2022/01/10 12:12:30;;;;;;;86.18;38.05;;;10.60;99.90;;;;;;5292078;28;20028;-78
2022/01/10 12:15:01;;;;;;;59.95;34.65;;;10.60;99.90;;;;;;5292056;28;20039;-78
2022/01/10 12:17:34;;;;;;;37.60;18.10;;;10.50;99.90;;;;;;5293398;28;20459;-78
2022/01/10 12:20:08;;;;;;;30.83;15.75;;;10.30;99.90;;;;;;5293222;28;20107;-78
2022/01/10 12:22:39;;;;;;;32.33;16.30;;;10.20;99.90;;;;;;5293195;28;20470;-79
2022/01/10 12:25:11;;;;;;;32.10;15.68;;;10.20;99.90;;;;;;5293015;28;20075;-76
2022/01/10 12:27:42;;;;;;;30.17;14.98;;;10.10;99.90;;;;;;5293410;28;20028;-78
2022/01/10 12:30:13;;;;;;;30.98;15.98;;;10.00;99.90;;;;;;5293374;28;20439;-77
2022/01/10 12:32:45;;;;;;;35.35;18.83;;;10.00;99.90;;;;;;5275132;28;20473;-78
2022/01/10 12:35:17;;;;;;;39.15;17.55;;;10.10;99.90;;;;;;5292965;28;20038;-75
2022/01/10 12:37:48;;;;;;;34.50;17.02;;;10.20;99.90;;;;;;5293047;28;20026;-77
2022/01/10 12:40:18;;;;;;;33.85;17.77;;;10.20;99.90;;;;;;5293235;28;20019;-78
2022/01/10 12:42:52;;;;;;;36.97;19.63;;;10.20;99.90;;;;;;5292903;28;20073;-77
2022/01/10 12:45:24;;;;;;;37.42;19.92;;;10.20;99.90;;;;;;5293070;28;20015;-77
2022/01/10 12:47:57;;;;;;;35.05;18.15;;;10.20;99.90;;;;;;5292993;28;20099;-78
2022/01/10 12:50:31;;;;;;;40.00;20.58;;;10.10;99.90;;;;;;5292834;28;20066;-77
2022/01/10 12:53:01;;;;;;;34.83;19.83;;;10.20;99.90;;;;;;5291451;28;20051;-76
2022/01/10 12:55:33;;;;;;;37.53;19.25;;;10.20;99.90;;;;;;5292551;28;20457;-77
2022/01/10 12:58:07;;;;;;;33.25;18.85;;;10.20;99.90;;;;;;5292738;28;20019;-78
2022/01/10 13:00:38;;;;;;;33.30;19.65;;;10.10;99.90;;;;;;5292666;28;20043;-77
2022/01/10 13:03:09;;;;;;;30.35;18.45;;;10.20;99.90;;;;;;5291905;28;20027;-77
2022/01/10 13:05:41;;;;;;;33.83;19.30;;;10.10;99.90;;;;;;5292395;28;20026;-79
2022/01/10 13:08:12;;;;;;;33.08;17.80;;;10.10;99.90;;;;;;5292633;28;20024;-77
2022/01/10 13:10:46;;;;;;;26.88;18.17;;;10.10;99.90;;;;;;5292288;28;20455;-79
2022/01/10 13:13:18;;;;;;;33.35;18.58;;;10.20;99.90;;;;;;5292153;28;20079;-78